Brownwood, TX

2:08 PM CST on February 28, 2015 (GMT -0600)
Early | Change Station
CLOSE
Current Station
Personal Weather Station
Location: Early, TX
Elevation: 1407 ft
Nearby Weather Stations
Active Advisory: Winter Weather Advisory Active Notice: Record Report

Elev 1407 ft 31.74 °N, 98.94 °W | Updated 11 minutes ago

Fog
Fog
30.4 °F
Feels Like 30 °F
N
2.2
Wind Variable Wind from ENE

Today
High -- | Low -- °F
--% Chance of Precip.
Yesterday
High -- | Low -- °F
Precip. -- in
7:04 AM 6:32 PM
Waxing Gibbous, 79% visible
Pressure 30.26 in
Visibility 1.8 miles
Clouds Overcast 600 ft
Windchill 30 °F
Dew Point 27 °F
Humidity 87%
Rainfall 0.00 in
Snow Depth Not available.
UV 2 out of 12
Pollen 6.10 out of 12
Air Quality Not available.
Flu Activity Not available.
METAR KBWD 281955Z AUTO 02005KT 1 3/4SM BR OVC006 M01/M02 A3026 RMK AO2

More Conditions Fewer Conditions

Pressure 30.26 in
Visibility 1.8 miles
Clouds Overcast 600 ft
Windchill 30 °F
Dew Point 27 °F
Humidity 87%
Rainfall 0.00 in
Snow Depth Not available.
UV 2 out of 12
Pollen 6.10 out of 12
Air Quality Not available.
Flu Activity Not available.
METAR KBWD 281955Z AUTO 02005KT 1 3/4SM BR OVC006 M01/M02 A3026 RMK AO2

More Conditions Fewer Conditions

10-Day Weather Forecast

Almanac

Astronomy

Feb. 28, 2015 Rise Set
Actual Time
Civil Twilight
Nautical Twilight
Astronomical Twilight
Moon
Length of Visible Light
Length of Day
Tomorrow will be .
, % of the Moon is Illuminated

Today's Extremes

State Highs State Lows

Community

WunderPhotos

Upload Photos

1,801,125 photos uploaded!

WunderBlogs® & News

Nearby

Air Quality

  Air Quality AQ Index Pollutant
Not available.

Snow Depth

Station Depth Elevation

Earthquake Activity

City Distance Mag. Time & Date
Minimum magnitude displayed is 2.5.

Coastal Water Temperatures

Place Temperature

Nearby Weather Stations

Winter Weather Advisory
Statement as of 10:41 AM CST on February 28, 2015

... Winter Weather Advisory remains in effect until 6 PM CST this
evening...

A Winter Weather Advisory remains in effect until 6 PM CST this
evening.

* Impacts: slick and hazardous roads... especially bridges...
overpasses... and secondary roads.

* Timing: through 6 PM Saturday.

* Accumulations: a tenth of an inch or less of ice is expected.

Precautionary/preparedness actions...

A Winter Weather Advisory means that periods of snow... sleet... or
freezing rain will cause travel difficulties. Be prepared for
slippery roads and limited visibilities and use caution while
driving.